Kullen, Sweden

5:19 PM CET on January 25, 2015 (GMT +0100)
THE SUMMIT MTB | Change Station
CLOSE
Current Station
Personal Weather Station
Location: Strandbaden, Skåne län
Elevation: 33 ft
Nearby Weather Stations

Elev 33 ft 56.22 °N, 12.54 °E | Updated 0 second ago

Fog
Fog
39.2 °F
Feels Like 36 °F
N
5.0
Wind Variable Wind from NW
Gusts 6.0 mph

Today
High -- | Low -- °F
--% Chance of Precip.
Yesterday
High -- | Low -- °F
Precip. -- in
8:19 AM 4:26 PM
Waxing Crescent, 33% visible
Pressure 30.18 in
Visibility 5.6 miles
Clouds
Windchill 36 °F
Dew Point 39 °F
Humidity 98%
Rainfall 0.00 in
Snow Depth Not available.
UV Not available.
Pollen Not available.
Air Quality Not available.
Flu Activity Not available.
METAR ESTA 251550Z 26004KT 9000 MIFG NSC M01/M02 Q1022

More Conditions Fewer Conditions

Pressure 30.18 in
Visibility 5.6 miles
Clouds
Windchill 36 °F
Dew Point 39 °F
Humidity 98%
Rainfall 0.00 in
Snow Depth Not available.
UV Not available.
Pollen Not available.
Air Quality Not available.
Flu Activity Not available.
METAR ESTA 251550Z 26004KT 9000 MIFG NSC M01/M02 Q1022

More Conditions Fewer Conditions

10-Day Weather Forecast

Almanac

Astronomy

Jan. 25, 2015 Rise Set
Actual Time
Civil Twilight
Nautical Twilight
Astronomical Twilight
Moon
Length of Visible Light
Length of Day
Tomorrow will be .
, % of the Moon is Illuminated

Today's Extremes

Country Highs Country Lows

Community

WunderPhotos

Upload Photos

1,789,939 photos uploaded!

WunderBlogs® & News

Nearby

Air Quality

  Air Quality AQ Index Pollutant
Not available.

Snow Depth

Station Depth Elevation

Earthquake Activity

City Distance Mag. Time & Date
Minimum magnitude displayed is 2.5.

Coastal Water Temperatures

Place Temperature

Nearby Weather Stations